sensor_id;sensor_type;location;lat;lon;timestamp;pressure;altitude;pressure_sealevel;temperature;humidity
56594;BME280;42474;51.660;5.824;2022-12-26T00:02:37;100920.0;;;11.3;100.0
56594;BME280;42474;51.660;5.824;2022-12-26T00:07:37;100920.0;;;11.3;100.0
56594;BME280;42474;51.660;5.824;2022-12-26T00:12:37;100930.0;;;11.3;100.0
56594;BME280;42474;51.660;5.824;2022-12-26T00:17:37;100910.0;;;11.3;100.0
56594;BME280;42474;51.660;5.824;2022-12-26T00:22:37;100910.0;;;11.3;100.0
56594;BME280;42474;51.660;5.824;2022-12-26T00:27:37;100920.0;;;11.3;100.0
56594;BME280;42474;51.660;5.824;2022-12-26T00:32:37;100940.0;;;11.3;100.0
56594;BME280;42474;51.660;5.824;2022-12-26T00:37:37;100950.0;;;11.2;100.0
56594;BME280;42474;51.660;5.824;2022-12-26T00:42:37;100960.0;;;11.2;100.0
56594;BME280;42474;51.660;5.824;2022-12-26T00:47:37;100970.0;;;11.2;100.0
56594;BME280;42474;51.660;5.824;2022-12-26T00:52:37;100970.0;;;11.1;100.0
56594;BME280;42474;51.660;5.824;2022-12-26T00:57:37;100980.0;;;11.1;100.0
56594;BME280;42474;51.660;5.824;2022-12-26T01:02:37;100970.0;;;11.1;100.0
56594;BME280;42474;51.660;5.824;2022-12-26T01:07:39;100980.0;;;11.1;100.0
56594;BME280;42474;51.660;5.824;2022-12-26T01:12:38;100990.0;;;11.1;100.0
56594;BME280;42474;51.660;5.824;2022-12-26T01:17:37;100980.0;;;11.1;100.0
56594;BME280;42474;51.660;5.824;2022-12-26T01:22:37;101000.0;;;11.1;100.0
56594;BME280;42474;51.660;5.824;2022-12-26T01:27:37;100990.0;;;11.1;100.0
56594;BME280;42474;51.660;5.824;2022-12-26T01:32:37;100990.0;;;11.1;100.0
56594;BME280;42474;51.660;5.824;2022-12-26T01:37:37;100980.0;;;11.1;100.0
56594;BME280;42474;51.660;5.824;2022-12-26T01:42:40;100980.0;;;11.1;100.0
56594;BME280;42474;51.660;5.824;2022-12-26T01:47:46;100980.0;;;11.1;100.0
56594;BME280;42474;51.660;5.824;2022-12-26T01:52:47;100990.0;;;11.1;100.0
56594;BME280;42474;51.660;5.824;2022-12-26T01:57:42;100980.0;;;11.1;100.0
56594;BME280;42474;51.660;5.824;2022-12-26T02:02:38;100990.0;;;11.1;100.0
56594;BME280;42474;51.660;5.824;2022-12-26T02:07:42;101000.0;;;11.1;100.0
56594;BME280;42474;51.660;5.824;2022-12-26T02:12:37;100990.0;;;11.1;100.0
56594;BME280;42474;51.660;5.824;2022-12-26T02:17:38;101000.0;;;11.0;100.0
56594;BME280;42474;51.660;5.824;2022-12-26T02:25:00;101000.0;;;11.0;100.0
56594;BME280;42474;51.660;5.824;2022-12-26T02:31:47;101000.0;;;11.0;100.0
56594;BME280;42474;51.660;5.824;2022-12-26T02:37:52;100990.0;;;11.0;100.0
56594;BME280;42474;51.660;5.824;2022-12-26T02:43:25;101010.0;;;11.0;100.0
56594;BME280;42474;51.660;5.824;2022-12-26T02:48:51;101000.0;;;11.0;100.0
56594;BME280;42474;51.660;5.824;2022-12-26T02:54:32;101000.0;;;10.9;100.0
56594;BME280;42474;51.660;5.824;2022-12-26T02:58:01;101000.0;;;10.9;100.0
56594;BME280;42474;51.660;5.824;2022-12-26T03:00:23;100990.0;;;10.8;100.0
56594;BME280;42474;51.660;5.824;2022-12-26T03:03:13;101010.0;;;10.8;100.0
56594;BME280;42474;51.660;5.824;2022-12-26T03:07:41;101010.0;;;10.8;100.0
56594;BME280;42474;51.660;5.824;2022-12-26T03:12:47;101010.0;;;10.8;100.0
56594;BME280;42474;51.660;5.824;2022-12-26T03:17:45;101010.0;;;10.8;100.0
56594;BME280;42474;51.660;5.824;2022-12-26T03:22:44;101020.0;;;10.8;100.0
56594;BME280;42474;51.660;5.824;2022-12-26T03:27:37;101020.0;;;10.8;100.0
56594;BME280;42474;51.660;5.824;2022-12-26T03:32:42;101020.0;;;10.9;100.0
56594;BME280;42474;51.660;5.824;2022-12-26T03:37:54;101010.0;;;10.9;100.0
56594;BME280;42474;51.660;5.824;2022-12-26T03:43:08;100990.0;;;10.9;100.0
56594;BME280;42474;51.660;5.824;2022-12-26T03:48:26;100990.0;;;10.9;100.0
56594;BME280;42474;51.660;5.824;2022-12-26T03:52:49;100990.0;;;10.9;100.0
56594;BME280;42474;51.660;5.824;2022-12-26T03:57:49;100990.0;;;10.9;100.0
56594;BME280;42474;51.660;5.824;2022-12-26T04:02:43;101020.0;;;10.9;100.0
56594;BME280;42474;51.660;5.824;2022-12-26T04:07:45;101040.0;;;10.9;99.5
56594;BME280;42474;51.660;5.824;2022-12-26T04:12:42;101050.0;;;10.9;99.5
56594;BME280;42474;51.660;5.824;2022-12-26T04:17:49;101060.0;;;10.9;100.0
56594;BME280;42474;51.660;5.824;2022-12-26T04:22:51;101040.0;;;10.8;99.0
56594;BME280;42474;51.660;5.824;2022-12-26T04:27:37;101050.0;;;10.8;99.0
56594;BME280;42474;51.660;5.824;2022-12-26T04:32:48;101060.0;;;10.8;99.0
56594;BME280;42474;51.660;5.824;2022-12-26T04:37:44;101050.0;;;10.7;98.5
56594;BME280;42474;51.660;5.824;2022-12-26T04:42:43;101050.0;;;10.7;98.5
56594;BME280;42474;51.660;5.824;2022-12-26T04:47:37;101040.0;;;10.6;98.5
56594;BME280;42474;51.660;5.824;2022-12-26T04:52:39;101040.0;;;10.6;98.0
56594;BME280;42474;51.660;5.824;2022-12-26T04:57:37;101020.0;;;10.5;98.0
56594;BME280;42474;51.660;5.824;2022-12-26T05:02:37;101010.0;;;10.5;98.0
56594;BME280;42474;51.660;5.824;2022-12-26T05:07:37;101010.0;;;10.5;98.0
56594;BME280;42474;51.660;5.824;2022-12-26T05:12:37;101020.0;;;10.4;98.0
56594;BME280;42474;51.660;5.824;2022-12-26T05:17:37;101020.0;;;10.4;98.0
56594;BME280;42474;51.660;5.824;2022-12-26T05:22:43;101040.0;;;10.4;98.0
56594;BME280;42474;51.660;5.824;2022-12-26T05:27:41;101040.0;;;10.3;98.0
56594;BME280;42474;51.660;5.824;2022-12-26T05:32:37;101040.0;;;10.3;98.0
56594;BME280;42474;51.660;5.824;2022-12-26T05:37:37;101040.0;;;10.3;98.0
56594;BME280;42474;51.660;5.824;2022-12-26T05:42:38;101040.0;;;10.3;98.0
56594;BME280;42474;51.660;5.824;2022-12-26T05:47:37;101040.0;;;10.3;98.0
56594;BME280;42474;51.660;5.824;2022-12-26T05:52:37;101020.0;;;10.3;98.0
56594;BME280;42474;51.660;5.824;2022-12-26T05:57:37;101010.0;;;10.2;98.0
56594;BME280;42474;51.660;5.824;2022-12-26T06:02:37;100990.0;;;10.2;98.0
56594;BME280;42474;51.660;5.824;2022-12-26T06:07:37;100990.0;;;10.2;97.5
56594;BME280;42474;51.660;5.824;2022-12-26T06:12:38;101000.0;;;10.1;97.5
56594;BME280;42474;51.660;5.824;2022-12-26T06:17:37;101010.0;;;10.1;97.5
56594;BME280;42474;51.660;5.824;2022-12-26T06:22:37;101010.0;;;10.1;97.5
56594;BME280;42474;51.660;5.824;2022-12-26T06:27:37;101020.0;;;10.1;97.5
56594;BME280;42474;51.660;5.824;2022-12-26T06:32:37;101020.0;;;10.1;98.0
56594;BME280;42474;51.660;5.824;2022-12-26T06:37:37;101030.0;;;10.1;98.0
56594;BME280;42474;51.660;5.824;2022-12-26T06:42:37;101050.0;;;10.1;98.5
56594;BME280;42474;51.660;5.824;2022-12-26T06:47:37;101050.0;;;10.2;98.5
56594;BME280;42474;51.660;5.824;2022-12-26T06:52:37;101060.0;;;10.2;98.5
56594;BME280;42474;51.660;5.824;2022-12-26T06:57:37;101070.0;;;10.2;98.0
56594;BME280;42474;51.660;5.824;2022-12-26T07:02:37;101060.0;;;10.3;98.0
56594;BME280;42474;51.660;5.824;2022-12-26T07:07:37;101060.0;;;10.3;97.5
56594;BME280;42474;51.660;5.824;2022-12-26T07:12:37;101070.0;;;10.3;97.0
56594;BME280;42474;51.660;5.824;2022-12-26T07:17:38;101060.0;;;10.3;96.5
56594;BME280;42474;51.660;5.824;2022-12-26T07:22:38;101060.0;;;10.2;96.5
56594;BME280;42474;51.660;5.824;2022-12-26T07:27:37;101060.0;;;10.2;96.5
56594;BME280;42474;51.660;5.824;2022-12-26T07:32:37;101080.0;;;10.1;96.0
56594;BME280;42474;51.660;5.824;2022-12-26T07:37:37;101080.0;;;10.1;96.0
56594;BME280;42474;51.660;5.824;2022-12-26T07:42:37;101080.0;;;10.1;96.0
56594;BME280;42474;51.660;5.824;2022-12-26T07:47:37;101080.0;;;10.1;96.0
56594;BME280;42474;51.660;5.824;2022-12-26T07:52:38;101080.0;;;10.1;96.0
56594;BME280;42474;51.660;5.824;2022-12-26T07:57:38;101080.0;;;10.1;96.0
56594;BME280;42474;51.660;5.824;2022-12-26T08:02:38;101090.0;;;10.1;96.0
56594;BME280;42474;51.660;5.824;2022-12-26T08:07:37;101090.0;;;10.1;95.5
56594;BME280;42474;51.660;5.824;2022-12-26T08:12:38;101090.0;;;10.1;95.5
56594;BME280;42474;51.660;5.824;2022-12-26T08:17:38;101100.0;;;10.1;95.5
56594;BME280;42474;51.660;5.824;2022-12-26T08:22:38;101100.0;;;10.1;95.5
56594;BME280;42474;51.660;5.824;2022-12-26T08:27:38;101090.0;;;10.1;95.5
56594;BME280;42474;51.660;5.824;2022-12-26T08:32:38;101100.0;;;10.1;95.5
56594;BME280;42474;51.660;5.824;2022-12-26T08:37:38;101090.0;;;10.1;95.0
56594;BME280;42474;51.660;5.824;2022-12-26T08:42:38;101080.0;;;10.2;95.0
56594;BME280;42474;51.660;5.824;2022-12-26T08:47:38;101090.0;;;10.2;95.0
56594;BME280;42474;51.660;5.824;2022-12-26T08:52:38;101100.0;;;10.3;95.5
56594;BME280;42474;51.660;5.824;2022-12-26T08:57:38;101120.0;;;10.5;95.5
56594;BME280;42474;51.660;5.824;2022-12-26T09:02:38;101120.0;;;10.6;95.0
56594;BME280;42474;51.660;5.824;2022-12-26T09:07:38;101130.0;;;10.8;94.5
56594;BME280;42474;51.660;5.824;2022-12-26T09:12:38;101120.0;;;10.9;94.0
56594;BME280;42474;51.660;5.824;2022-12-26T09:17:38;101140.0;;;10.9;93.5
56594;BME280;42474;51.660;5.824;2022-12-26T09:22:38;101130.0;;;11.1;93.0
56594;BME280;42474;51.660;5.824;2022-12-26T09:27:38;101140.0;;;11.2;92.5
56594;BME280;42474;51.660;5.824;2022-12-26T09:32:38;101140.0;;;11.3;91.5
56594;BME280;42474;51.660;5.824;2022-12-26T09:37:38;101140.0;;;11.4;91.0
56594;BME280;42474;51.660;5.824;2022-12-26T09:43:22;101150.0;;;11.4;90.0
56594;BME280;42474;51.660;5.824;2022-12-26T09:47:50;101150.0;;;11.5;89.5
56594;BME280;42474;51.660;5.824;2022-12-26T09:52:45;101160.0;;;11.6;89.5
56594;BME280;42474;51.660;5.824;2022-12-26T09:57:50;101160.0;;;11.7;88.5
56594;BME280;42474;51.660;5.824;2022-12-26T10:02:38;101170.0;;;11.7;87.5
56594;BME280;42474;51.660;5.824;2022-12-26T10:07:45;101170.0;;;11.7;87.5
56594;BME280;42474;51.660;5.824;2022-12-26T10:12:54;101190.0;;;11.7;87.0
56594;BME280;42474;51.660;5.824;2022-12-26T10:17:45;101190.0;;;11.7;87.0
56594;BME280;42474;51.660;5.824;2022-12-26T10:23:21;101180.0;;;11.7;87.0
56594;BME280;42474;51.660;5.824;2022-12-26T10:27:47;101180.0;;;11.7;86.5
56594;BME280;42474;51.660;5.824;2022-12-26T10:32:45;101200.0;;;11.7;87.0
56594;BME280;42474;51.660;5.824;2022-12-26T10:37:40;101200.0;;;11.7;87.0
56594;BME280;42474;51.660;5.824;2022-12-26T10:42:41;101180.0;;;11.7;86.5
56594;BME280;42474;51.660;5.824;2022-12-26T10:47:41;101250.0;;;11.8;87.5
56594;BME280;42474;51.660;5.824;2022-12-26T10:52:40;101250.0;;;11.5;86.5
56594;BME280;42474;51.660;5.824;2022-12-26T10:57:38;101240.0;;;11.1;87.0
56594;BME280;42474;51.660;5.824;2022-12-26T11:02:38;101250.0;;;10.8;88.0
56594;BME280;42474;51.660;5.824;2022-12-26T11:07:48;101260.0;;;10.6;89.0
56594;BME280;42474;51.660;5.824;2022-12-26T11:12:46;101270.0;;;10.5;90.0
56594;BME280;42474;51.660;5.824;2022-12-26T11:17:47;101280.0;;;10.4;90.5
56594;BME280;42474;51.660;5.824;2022-12-26T11:22:38;101300.0;;;10.4;91.5
56594;BME280;42474;51.660;5.824;2022-12-26T11:27:41;101310.0;;;10.3;91.0
56594;BME280;42474;51.660;5.824;2022-12-26T11:32:38;101310.0;;;10.3;92.0
56594;BME280;42474;51.660;5.824;2022-12-26T11:37:46;101330.0;;;10.2;92.5
56594;BME280;42474;51.660;5.824;2022-12-26T11:42:38;101330.0;;;10.1;93.0
56594;BME280;42474;51.660;5.824;2022-12-26T11:47:44;101340.0;;;10.0;91.5
56594;BME280;42474;51.660;5.824;2022-12-26T11:52:40;101350.0;;;9.9;90.0
56594;BME280;42474;51.660;5.824;2022-12-26T11:57:38;101360.0;;;9.8;89.5
56594;BME280;42474;51.660;5.824;2022-12-26T12:02:39;101350.0;;;9.6;88.5
56594;BME280;42474;51.660;5.824;2022-12-26T12:08:04;101370.0;;;9.5;88.0
56594;BME280;42474;51.660;5.824;2022-12-26T12:13:01;101380.0;;;9.3;88.0
56594;BME280;42474;51.660;5.824;2022-12-26T12:17:54;101380.0;;;9.3;87.5
56594;BME280;42474;51.660;5.824;2022-12-26T12:23:41;101390.0;;;9.2;86.0
56594;BME280;42474;51.660;5.824;2022-12-26T12:29:14;101390.0;;;9.0;85.0
56594;BME280;42474;51.660;5.824;2022-12-26T12:33:46;101380.0;;;9.0;85.0
56594;BME280;42474;51.660;5.824;2022-12-26T12:38:55;101380.0;;;8.9;85.0
56594;BME280;42474;51.660;5.824;2022-12-26T12:44:03;101380.0;;;8.8;84.5
56594;BME280;42474;51.660;5.824;2022-12-26T12:49:10;101390.0;;;8.8;84.5
56594;BME280;42474;51.660;5.824;2022-12-26T12:54:23;101400.0;;;8.7;83.0
56594;BME280;42474;51.660;5.824;2022-12-26T12:59:13;101400.0;;;8.6;84.0
56594;BME280;42474;51.660;5.824;2022-12-26T13:02:54;101400.0;;;8.7;84.5
56594;BME280;42474;51.660;5.824;2022-12-26T13:07:44;101410.0;;;8.7;84.5
56594;BME280;42474;51.660;5.824;2022-12-26T13:12:42;101430.0;;;8.7;85.0
56594;BME280;42474;51.660;5.824;2022-12-26T13:17:55;101430.0;;;8.7;85.0
56594;BME280;42474;51.660;5.824;2022-12-26T13:22:50;101430.0;;;8.7;82.5
56594;BME280;42474;51.660;5.824;2022-12-26T13:27:38;101430.0;;;8.6;82.0
56594;BME280;42474;51.660;5.824;2022-12-26T13:32:38;101430.0;;;8.6;82.0
56594;BME280;42474;51.660;5.824;2022-12-26T13:37:57;101440.0;;;8.5;81.5
56594;BME280;42474;51.660;5.824;2022-12-26T13:42:44;101450.0;;;8.5;82.0
56594;BME280;42474;51.660;5.824;2022-12-26T13:47:38;101460.0;;;8.5;82.5
56594;BME280;42474;51.660;5.824;2022-12-26T13:52:39;101460.0;;;8.6;82.5
56594;BME280;42474;51.660;5.824;2022-12-26T13:57:43;101460.0;;;8.5;80.5
56594;BME280;42474;51.660;5.824;2022-12-26T14:03:32;101480.0;;;8.4;80.0
56594;BME280;42474;51.660;5.824;2022-12-26T14:09:02;101490.0;;;8.4;80.0
56594;BME280;42474;51.660;5.824;2022-12-26T14:14:24;101490.0;;;8.3;79.5
56594;BME280;42474;51.660;5.824;2022-12-26T14:19:41;101510.0;;;8.3;79.5
56594;BME280;42474;51.660;5.824;2022-12-26T14:24:43;101510.0;;;8.2;79.5
56594;BME280;42474;51.660;5.824;2022-12-26T14:29:59;101510.0;;;8.2;79.5
56594;BME280;42474;51.660;5.824;2022-12-26T14:34:52;101510.0;;;8.1;79.0
56594;BME280;42474;51.660;5.824;2022-12-26T14:39:21;101510.0;;;8.1;79.0
56594;BME280;42474;51.660;5.824;2022-12-26T14:43:09;101510.0;;;8.1;79.5
56594;BME280;42474;51.660;5.824;2022-12-26T14:47:48;101530.0;;;8.1;79.5
56594;BME280;42474;51.660;5.824;2022-12-26T14:52:38;101540.0;;;8.1;79.5
56594;BME280;42474;51.660;5.824;2022-12-26T14:57:44;101540.0;;;8.0;79.0
56594;BME280;42474;51.660;5.824;2022-12-26T15:02:50;101560.0;;;8.0;78.5
56594;BME280;42474;51.660;5.824;2022-12-26T15:09:22;101590.0;;;7.9;77.0
56594;BME280;42474;51.660;5.824;2022-12-26T15:15:59;101590.0;;;7.7;74.5
56594;BME280;42474;51.660;5.824;2022-12-26T15:23:27;101610.0;;;7.6;74.0
56594;BME280;42474;51.660;5.824;2022-12-26T15:30:16;101620.0;;;7.4;74.0
56594;BME280;42474;51.660;5.824;2022-12-26T15:34:36;101640.0;;;7.3;74.5
56594;BME280;42474;51.660;5.824;2022-12-26T15:38:56;101630.0;;;7.2;74.5
56594;BME280;42474;51.660;5.824;2022-12-26T15:43:15;101650.0;;;7.1;75.0
56594;BME280;42474;51.660;5.824;2022-12-26T15:47:51;101650.0;;;7.0;75.5
56594;BME280;42474;51.660;5.824;2022-12-26T15:52:19;101650.0;;;6.9;76.0
56594;BME280;42474;51.660;5.824;2022-12-26T15:57:59;101670.0;;;6.9;76.0
56594;BME280;42474;51.660;5.824;2022-12-26T16:00:56;101670.0;;;6.8;76.5
56594;BME280;42474;51.660;5.824;2022-12-26T16:02:45;101690.0;;;6.7;77.0
56594;BME280;42474;51.660;5.824;2022-12-26T16:08:03;101700.0;;;6.7;76.5
56594;BME280;42474;51.660;5.824;2022-12-26T16:12:38;101700.0;;;6.6;76.0
56594;BME280;42474;51.660;5.824;2022-12-26T16:17:39;101700.0;;;6.5;76.5
56594;BME280;42474;51.660;5.824;2022-12-26T16:22:41;101690.0;;;6.4;77.0
56594;BME280;42474;51.660;5.824;2022-12-26T16:27:38;101710.0;;;6.3;77.5
56594;BME280;42474;51.660;5.824;2022-12-26T16:32:40;101710.0;;;6.3;78.0
56594;BME280;42474;51.660;5.824;2022-12-26T16:37:38;101720.0;;;6.2;78.5
56594;BME280;42474;51.660;5.824;2022-12-26T16:42:52;101740.0;;;6.1;79.0
56594;BME280;42474;51.660;5.824;2022-12-26T16:47:38;101740.0;;;6.0;79.5
56594;BME280;42474;51.660;5.824;2022-12-26T16:52:38;101750.0;;;6.0;79.5
56594;BME280;42474;51.660;5.824;2022-12-26T16:57:40;101740.0;;;5.9;79.5
56594;BME280;42474;51.660;5.824;2022-12-26T17:02:45;101740.0;;;5.8;79.5
56594;BME280;42474;51.660;5.824;2022-12-26T17:07:46;101760.0;;;5.7;79.5
56594;BME280;42474;51.660;5.824;2022-12-26T17:12:38;101760.0;;;5.6;79.5
56594;BME280;42474;51.660;5.824;2022-12-26T17:17:38;101770.0;;;5.5;79.5
56594;BME280;42474;51.660;5.824;2022-12-26T17:22:38;101780.0;;;5.4;79.5
56594;BME280;42474;51.660;5.824;2022-12-26T17:27:38;101770.0;;;5.3;80.0
56594;BME280;42474;51.660;5.824;2022-12-26T17:32:46;101780.0;;;5.3;80.0
56594;BME280;42474;51.660;5.824;2022-12-26T17:37:38;101780.0;;;5.2;80.5
56594;BME280;42474;51.660;5.824;2022-12-26T17:42:48;101790.0;;;5.1;80.5
56594;BME280;42474;51.660;5.824;2022-12-26T17:47:38;101800.0;;;5.0;80.5
56594;BME280;42474;51.660;5.824;2022-12-26T17:52:38;101800.0;;;5.0;80.5
56594;BME280;42474;51.660;5.824;2022-12-26T17:57:38;101800.0;;;4.9;81.0
56594;BME280;42474;51.660;5.824;2022-12-26T18:02:38;101800.0;;;4.9;81.0
56594;BME280;42474;51.660;5.824;2022-12-26T18:07:38;101810.0;;;4.9;81.0
56594;BME280;42474;51.660;5.824;2022-12-26T18:12:38;101810.0;;;4.8;81.0
56594;BME280;42474;51.660;5.824;2022-12-26T18:17:38;101820.0;;;4.8;81.0
56594;BME280;42474;51.660;5.824;2022-12-26T18:22:38;101840.0;;;4.8;81.5
56594;BME280;42474;51.660;5.824;2022-12-26T18:27:38;101840.0;;;4.7;81.5
56594;BME280;42474;51.660;5.824;2022-12-26T18:32:38;101850.0;;;4.7;81.5
56594;BME280;42474;51.660;5.824;2022-12-26T18:37:39;101850.0;;;4.7;82.0
56594;BME280;42474;51.660;5.824;2022-12-26T18:42:38;101860.0;;;4.7;82.0
56594;BME280;42474;51.660;5.824;2022-12-26T18:47:38;101870.0;;;4.6;82.0
56594;BME280;42474;51.660;5.824;2022-12-26T18:52:38;101880.0;;;4.6;82.0
56594;BME280;42474;51.660;5.824;2022-12-26T18:57:38;101890.0;;;4.6;82.0
56594;BME280;42474;51.660;5.824;2022-12-26T19:02:38;101890.0;;;4.6;82.0
56594;BME280;42474;51.660;5.824;2022-12-26T19:07:38;101900.0;;;4.6;82.0
56594;BME280;42474;51.660;5.824;2022-12-26T19:12:38;101910.0;;;4.5;82.0
56594;BME280;42474;51.660;5.824;2022-12-26T19:17:38;101930.0;;;4.5;82.0
56594;BME280;42474;51.660;5.824;2022-12-26T19:22:38;101920.0;;;4.5;82.0
56594;BME280;42474;51.660;5.824;2022-12-26T19:27:38;101940.0;;;4.5;82.0
56594;BME280;42474;51.660;5.824;2022-12-26T19:32:38;101950.0;;;4.5;82.0
56594;BME280;42474;51.660;5.824;2022-12-26T19:37:39;101950.0;;;4.5;81.5
56594;BME280;42474;51.660;5.824;2022-12-26T19:42:38;101950.0;;;4.5;81.5
56594;BME280;42474;51.660;5.824;2022-12-26T19:47:38;101960.0;;;4.5;82.0
56594;BME280;42474;51.660;5.824;2022-12-26T19:57:38;101960.0;;;4.6;82.0
56594;BME280;42474;51.660;5.824;2022-12-26T20:02:38;101960.0;;;4.7;81.5
56594;BME280;42474;51.660;5.824;2022-12-26T20:07:38;101960.0;;;4.8;81.5
56594;BME280;42474;51.660;5.824;2022-12-26T20:12:38;101960.0;;;4.8;81.0
56594;BME280;42474;51.660;5.824;2022-12-26T20:17:38;101960.0;;;4.8;81.0
56594;BME280;42474;51.660;5.824;2022-12-26T20:22:38;101970.0;;;4.9;81.0
56594;BME280;42474;51.660;5.824;2022-12-26T20:27:38;101960.0;;;4.9;80.5
56594;BME280;42474;51.660;5.824;2022-12-26T20:32:38;101960.0;;;5.0;80.5
56594;BME280;42474;51.660;5.824;2022-12-26T20:37:38;101960.0;;;5.0;80.0
56594;BME280;42474;51.660;5.824;2022-12-26T20:42:38;101970.0;;;5.0;80.0
56594;BME280;42474;51.660;5.824;2022-12-26T20:47:38;101960.0;;;5.0;80.0
56594;BME280;42474;51.660;5.824;2022-12-26T20:52:38;101980.0;;;5.0;79.5
56594;BME280;42474;51.660;5.824;2022-12-26T20:57:38;102000.0;;;5.0;79.0
56594;BME280;42474;51.660;5.824;2022-12-26T21:02:38;101990.0;;;5.0;79.0
56594;BME280;42474;51.660;5.824;2022-12-26T21:07:38;102000.0;;;5.0;79.5
56594;BME280;42474;51.660;5.824;2022-12-26T21:12:38;102000.0;;;4.9;79.0
56594;BME280;42474;51.660;5.824;2022-12-26T21:17:38;102000.0;;;4.9;79.0
56594;BME280;42474;51.660;5.824;2022-12-26T21:22:38;102000.0;;;4.8;79.0
56594;BME280;42474;51.660;5.824;2022-12-26T21:27:38;102010.0;;;4.8;79.5
56594;BME280;42474;51.660;5.824;2022-12-26T21:32:38;102010.0;;;4.8;79.5
56594;BME280;42474;51.660;5.824;2022-12-26T21:37:38;102010.0;;;4.7;79.5
56594;BME280;42474;51.660;5.824;2022-12-26T21:42:38;102010.0;;;4.7;79.5
56594;BME280;42474;51.660;5.824;2022-12-26T21:47:38;102020.0;;;4.7;80.0
56594;BME280;42474;51.660;5.824;2022-12-26T21:52:38;102030.0;;;4.7;80.0
56594;BME280;42474;51.660;5.824;2022-12-26T21:57:38;102030.0;;;4.7;80.0
56594;BME280;42474;51.660;5.824;2022-12-26T22:02:38;102030.0;;;4.6;80.5
56594;BME280;42474;51.660;5.824;2022-12-26T22:07:38;102040.0;;;4.6;80.5
56594;BME280;42474;51.660;5.824;2022-12-26T22:12:38;102050.0;;;4.6;80.5
56594;BME280;42474;51.660;5.824;2022-12-26T22:17:38;102050.0;;;4.6;80.5
56594;BME280;42474;51.660;5.824;2022-12-26T22:22:38;102070.0;;;4.6;81.0
56594;BME280;42474;51.660;5.824;2022-12-26T22:27:38;102080.0;;;4.6;81.0
56594;BME280;42474;51.660;5.824;2022-12-26T22:32:38;102080.0;;;4.6;81.0
56594;BME280;42474;51.660;5.824;2022-12-26T22:37:38;102070.0;;;4.6;81.5
56594;BME280;42474;51.660;5.824;2022-12-26T22:42:38;102070.0;;;4.6;81.0
56594;BME280;42474;51.660;5.824;2022-12-26T22:47:38;102080.0;;;4.6;81.5
56594;BME280;42474;51.660;5.824;2022-12-26T22:52:38;102080.0;;;4.6;81.5
56594;BME280;42474;51.660;5.824;2022-12-26T22:57:38;102080.0;;;4.6;82.0
56594;BME280;42474;51.660;5.824;2022-12-26T23:02:38;102090.0;;;4.6;82.0
56594;BME280;42474;51.660;5.824;2022-12-26T23:07:38;102100.0;;;4.6;82.0
56594;BME280;42474;51.660;5.824;2022-12-26T23:12:38;102110.0;;;4.6;82.5
56594;BME280;42474;51.660;5.824;2022-12-26T23:17:47;102100.0;;;4.6;82.5
56594;BME280;42474;51.660;5.824;2022-12-26T23:22:38;102110.0;;;4.6;82.5
56594;BME280;42474;51.660;5.824;2022-12-26T23:27:38;102110.0;;;4.6;82.5
56594;BME280;42474;51.660;5.824;2022-12-26T23:32:42;102100.0;;;4.6;83.0
56594;BME280;42474;51.660;5.824;2022-12-26T23:37:39;102110.0;;;4.6;83.0
56594;BME280;42474;51.660;5.824;2022-12-26T23:42:38;102100.0;;;4.6;83.0
56594;BME280;42474;51.660;5.824;2022-12-26T23:47:39;102110.0;;;4.6;83.0
56594;BME280;42474;51.660;5.824;2022-12-26T23:52:38;102110.0;;;4.6;83.5
56594;BME280;42474;51.660;5.824;2022-12-26T23:57:38;102120.0;;;4.6;83.5
